Погода Пырашевона 2 недели

Минская область, Белоруссия

25 мая-07 июня
  • 25мая
    Сегодня
    +10°
    +25°
    Облачно с прояснениями
    ВремяПогодаТемператураВлажностьДавлениеВетер, м/сВероятность осадков
    00:00Ясно и безоблачно+16°C68 %749 мм4.0 м/с2 %
    03:00Облачно с прояснениями+14°C65 %749 мм3.9 м/с2 %
    06:00Облачно с прояснениями+13°C66 %749 мм3.5 м/с2 %
    09:00Облачно с прояснениями+19°C63 %749 мм3.6 м/с2 %
    12:00Облачно с прояснениями+23°C53 %749 мм4.0 м/с1 %
    15:00Облачно с прояснениями+24°C40 %748 мм5.2 м/с9 %
    18:00Облачно с прояснениями+25°C39 %748 мм4.7 м/с10 %
    21:00Облачно с прояснениями+20°C59 %748 мм2.1 м/с5 %
  • 26мая
    Воскресенье
    +12°
    +24°
    Практически безоблачно
    ВремяПогодаТемператураВлажностьДавлениеВетер, м/сВероятность осадков
    00:00Облачно с прояснениями+15°C63 %748 мм2.4 м/с2 %
    03:00Практически безоблачно+13°C67 %748 мм2.1 м/с2 %
    06:00Ясно и безоблачно+11°C74 %748 мм1.9 м/с2 %
    09:00Ясно и безоблачно+19°C56 %749 мм1.9 м/с2 %
    12:00Ясно и безоблачно+23°C34 %749 мм2.8 м/с2 %
    15:00Практически безоблачно+24°C33 %749 мм3.1 м/с2 %
    18:00Ясно и безоблачно+24°C35 %748 мм2.9 м/с2 %
    21:00Ясно и безоблачно+19°C58 %748 мм2.8 м/с2 %
  • 27мая
    Понедельник
    +12°
    +26°
    Ясно и безоблачно
    ВремяПогодаТемператураВлажностьДавлениеВетер, м/сВероятность осадков
    00:00Ясно и безоблачно+15°C53 %748 мм1.2 м/с2 %
    03:00Ясно и безоблачно+13°C67 %748 мм1.9 м/с2 %
    06:00Ясно и безоблачно+14°C70 %748 мм2.0 м/с2 %
    09:00Ясно и безоблачно+20°C50 %748 мм1.9 м/с2 %
    12:00Ясно и безоблачно+24°C38 %748 мм2.8 м/с2 %
    15:00Ясно и безоблачно+26°C38 %747 мм2.8 м/с3 %
    18:00Ясно и безоблачно+26°C38 %746 мм2.6 м/с8 %
    21:00Ясно и безоблачно+21°C56 %746 мм2.3 м/с3 %
  • 28мая
    Вторник
    +14°
    +26°
    Ясно и безоблачно
    ВремяПогодаТемператураВлажностьДавлениеВетер, м/сВероятность осадков
    00:00Ясно и безоблачно+16°C69 %745 мм2.5 м/с2 %
    03:00Ясно и безоблачно+17°C66 %745 мм1.2 м/с2 %
    06:00Ясно и безоблачно+14°C82 %745 мм1.5 м/с2 %
    09:00Ясно и безоблачно+20°C56 %745 мм2.0 м/с2 %
    12:00Практически безоблачно+24°C34 %745 мм3.9 м/с4 %
    15:00Ясно и безоблачно+26°C30 %744 мм3.6 м/с12 %
    18:00Практически безоблачно+26°C31 %743 мм3.0 м/с26 %
    21:00Ясно и безоблачно+21°C57 %742 мм2.8 м/с12 %
  • 29мая
    Среда
    +13°
    +27°
    Облачно с прояснениями
    ВремяПогодаТемператураВлажностьДавлениеВетер, м/сВероятность осадков
    00:00Ясно и безоблачно+17°C83 %742 мм3.0 м/с2 %
    03:00Практически безоблачно+14°C93 %742 мм1.9 м/с2 %
    06:00Облачно с прояснениями+14°C90 %741 мм2.5 м/с2 %
    09:00Практически безоблачно+21°C67 %741 мм2.7 м/с2 %
    12:00Облачно с прояснениями+25°C38 %741 мм2.9 м/с14 %
    15:00Облачно с прояснениями+26°C30 %740 мм3.9 м/с31 %
    18:00Ясно и безоблачно+26°C31 %739 мм3.4 м/с29 %
    21:00Небольшая облачность+21°C43 %739 мм3.3 м/с3 %
Мы используем cookies
Соглашаюсь